Time;durP1;ratioP1;P1;durP2;ratioP2;P2;SDS_P1;SDS_P2;PMS_P1;PMS_P2;Temp;Humidity;BMP_temperature;BMP_pressure;BME280_temperature;BME280_humidity;BME280_pressure;Samples;Min_cycle;Max_cycle;Signal;HPM_P1;HPM_P2
2022/03/16 00:01:29;;;;;;;40.28;31.50;;;;;;;6.06;75.57;102317.56;5115143;28;20027;-72
2022/03/16 00:03:55;;;;;;;39.35;32.35;;;;;;;6.05;75.48;102314.94;5107034;28;20031;-72
2022/03/16 00:06:20;;;;;;;41.72;32.90;;;;;;;6.08;75.05;102317.53;5088384;28;20023;-71
2022/03/16 00:08:46;;;;;;;40.60;31.90;;;;;;;5.97;75.31;102316.88;5096863;28;20063;-72
2022/03/16 00:11:13;;;;;;;39.72;31.98;;;;;;;6.04;75.93;102323.78;5104868;28;20043;-72
2022/03/16 00:13:38;;;;;;;42.22;33.55;;;;;;;5.88;76.05;102323.16;5079059;28;20028;-72
2022/03/16 00:16:06;;;;;;;39.60;31.42;;;;;;;5.87;75.56;102326.72;5096459;28;20023;-72
2022/03/16 00:18:31;;;;;;;42.08;33.17;;;;;;;5.80;76.01;102317.19;5085584;28;20037;-72
2022/03/16 00:20:58;;;;;;;39.65;32.35;;;;;;;5.69;75.85;102312.13;5095785;28;20118;-72
2022/03/16 00:23:25;;;;;;;41.40;31.20;;;;;;;5.72;75.29;102316.47;5092919;28;20107;-72
2022/03/16 00:25:53;;;;;;;38.35;31.88;;;;;;;5.64;75.90;102327.16;5105157;28;20020;-72
2022/03/16 00:28:19;;;;;;;43.83;32.00;;;;;;;5.67;75.77;102314.75;5103215;28;20024;-72
2022/03/16 00:30:47;;;;;;;41.00;31.95;;;;;;;5.64;76.14;102322.75;5064355;28;20199;-72
2022/03/16 00:33:13;;;;;;;41.75;33.05;;;;;;;5.63;76.40;102334.22;5105405;28;20028;-72
2022/03/16 00:35:39;;;;;;;44.35;33.28;;;;;;;5.59;76.34;102318.44;5075846;28;20409;-72
2022/03/16 00:38:09;;;;;;;43.03;33.58;;;;;;;5.56;77.09;102319.41;5090678;28;20020;-72
2022/03/16 00:40:35;;;;;;;;;;;;;;;5.78;75.26;102325.13;5088470;28;20031;-72
2022/03/16 00:43:01;;;;;;;41.78;33.25;;;;;;;5.68;76.59;102310.38;5092373;28;19994;-72
2022/03/16 00:45:26;;;;;;;46.38;36.25;;;;;;;5.76;78.59;102312.84;5086479;28;20502;-72
2022/03/16 00:47:51;;;;;;;43.30;36.38;;;;;;;5.89;78.36;102317.88;5087483;28;20033;-71
2022/03/16 00:50:20;;;;;;;45.85;37.50;;;;;;;5.98;78.94;102308.94;5107738;28;20123;-71
2022/03/16 00:52:46;;;;;;;49.85;36.80;;;;;;;5.94;79.26;102315.16;5094413;28;20040;-72
2022/03/16 00:55:11;;;;;;;45.72;37.40;;;;;;;6.07;78.66;102311.38;5092800;28;20075;-71
2022/03/16 00:57:39;;;;;;;47.97;37.88;;;;;;;6.12;79.43;102320.09;5106002;28;20063;-72
2022/03/16 01:00:06;;;;;;;47.13;37.47;;;;;;;6.14;79.04;102315.63;5096386;28;20036;-72
2022/03/16 01:02:32;;;;;;;49.28;37.53;;;;;;;6.20;78.86;102319.91;5085417;28;20031;-71
2022/03/16 01:04:59;;;;;;;47.13;36.83;;;;;;;6.23;79.61;102321.63;5106755;28;20020;-71
2022/03/16 01:07:25;;;;;;;46.90;36.75;;;;;;;6.22;78.68;102318.13;5076594;28;20064;-72
2022/03/16 01:09:52;;;;;;;46.13;36.33;;;;;;;6.19;78.91;102320.81;5086680;28;20040;-72
2022/03/16 01:12:18;;;;;;;45.53;37.25;;;;;;;6.19;79.13;102312.03;5094156;28;20036;-72
2022/03/16 01:14:44;;;;;;;46.63;37.63;;;;;;;6.16;78.73;102307.69;5070643;28;20084;-72
2022/03/16 01:17:10;;;;;;;43.33;35.97;;;;;;;6.13;79.33;102298.03;5063053;28;20474;-72
2022/03/16 01:19:36;;;;;;;49.85;36.17;;;;;;;6.11;79.96;102313.03;5076369;28;20038;-72
2022/03/16 01:22:03;;;;;;;46.35;36.25;;;;;;;6.10;79.60;102307.81;5091677;28;20150;-71
2022/03/16 01:24:28;;;;;;;45.28;34.45;;;;;;;6.10;79.85;102306.03;5078703;28;20112;-71
2022/03/16 01:26:54;;;;;;;44.95;36.08;;;;;;;6.15;79.63;102305.94;5097192;28;20421;-72
2022/03/16 01:29:20;;;;;;;44.05;36.90;;;;;;;6.10;79.39;102302.53;5092363;28;20434;-72
2022/03/16 01:31:46;;;;;;;43.08;34.97;;;;;;;6.10;79.70;102311.31;5098207;28;20035;-71
2022/03/16 01:34:12;;;;;;;41.92;35.22;;;;;;;6.11;80.10;102309.53;5101900;28;20023;-71
2022/03/16 01:36:38;;;;;;;37.97;32.25;;;;;;;5.92;78.94;102299.34;5101658;28;20034;-71
2022/03/16 01:39:04;;;;;;;48.63;35.75;;;;;;;5.98;79.90;102303.66;5077370;28;20483;-72
2022/03/16 01:41:30;;;;;;;43.45;35.35;;;;;;;5.98;80.22;102294.88;5094194;28;20016;-72
2022/03/16 01:43:56;;;;;;;43.78;34.58;;;;;;;5.98;79.81;102287.81;5101502;28;20028;-71
2022/03/16 01:46:22;;;;;;;43.72;35.20;;;;;;;6.01;80.22;102282.47;5103597;28;20020;-71
2022/03/16 01:48:49;;;;;;;41.75;35.03;;;;;;;6.09;80.15;102275.25;5094086;28;20024;-71
2022/03/16 01:51:15;;;;;;;38.97;33.53;;;;;;;5.96;79.31;102260.56;5098800;28;20116;-71
2022/03/16 01:53:43;;;;;;;42.65;34.17;;;;;;;5.96;79.78;102281.69;5097620;28;20102;-71
2022/03/16 01:56:11;;;;;;;44.13;34.78;;;;;;;6.03;79.35;102272.75;5093891;28;20024;-72
2022/03/16 01:58:37;;;;;;;41.10;33.28;;;;;;;5.97;79.67;102278.16;5098081;28;20027;-71
2022/03/16 02:01:03;;;;;;;40.47;32.90;;;;;;;5.95;79.96;102266.75;5106957;28;20390;-71
2022/03/16 02:03:28;;;;;;;40.95;33.15;;;;;;;5.99;79.56;102265.78;5098257;28;20378;-71
2022/03/16 02:05:54;;;;;;;40.17;32.85;;;;;;;5.97;79.82;102258.78;5094928;28;20031;-71
2022/03/16 02:08:22;;;;;;;39.50;32.35;;;;;;;5.86;80.14;102256.34;5111212;28;20525;-71
2022/03/16 02:10:50;;;;;;;38.45;32.38;;;;;;;5.89;79.71;102257.16;5097304;28;20035;-71
2022/03/16 02:13:16;;;;;;;41.28;31.27;;;;;;;5.88;79.78;102257.16;5111503;28;20032;-71
2022/03/16 02:15:42;;;;;;;42.15;32.10;;;;;;;5.87;80.02;102253.66;5081850;28;20046;-71
2022/03/16 02:18:07;;;;;;;36.40;30.85;;;;;;;5.82;80.40;102254.66;5095351;28;20020;-71
2022/03/16 02:20:33;;;;;;;36.88;29.85;;;;;;;5.74;80.67;102262.75;5092222;28;20048;-72
2022/03/16 02:23:05;;;;;;;36.00;29.85;;;;;;;5.71;80.29;102260.16;5097110;28;20466;-71
2022/03/16 02:25:31;;;;;;;34.88;29.75;;;;;;;5.61;80.78;102254.19;5083061;28;20016;-71
2022/03/16 02:27:57;;;;;;;36.20;29.35;;;;;;;5.63;81.33;102262.09;5099065;28;20088;-71
2022/03/16 02:30:25;;;;;;;34.08;28.70;;;;;;;5.63;80.70;102259.44;5092914;28;20426;-72
2022/03/16 02:32:51;;;;;;;39.58;30.90;;;;;;;5.58;80.84;102258.66;5109283;28;20034;-71
2022/03/16 02:35:17;;;;;;;37.40;30.25;;;;;;;5.54;81.35;102262.28;5086343;28;20402;-71
2022/03/16 02:37:43;;;;;;;35.28;30.38;;;;;;;5.59;80.87;102261.28;5091431;28;20032;-71
2022/03/16 02:40:11;;;;;;;36.08;29.75;;;;;;;5.54;80.96;102265.78;5099366;28;20059;-72
2022/03/16 02:42:38;;;;;;;37.03;28.65;;;;;;;5.56;80.79;102261.34;5087612;28;20057;-71
2022/03/16 02:45:06;;;;;;;39.00;29.48;;;;;;;5.54;81.17;102257.00;5092330;28;20069;-71
2022/03/16 02:47:33;;;;;;;36.08;27.67;;;;;;;5.56;80.57;102256.06;5092740;28;20099;-72
2022/03/16 02:50:04;;;;;;;35.50;29.05;;;;;;;5.58;80.79;102254.25;5073130;28;20024;-72
2022/03/16 02:52:30;;;;;;;36.28;28.98;;;;;;;5.55;81.39;102250.81;5098291;28;20020;-72
2022/03/16 02:54:55;;;;;;;35.47;27.35;;;;;;;5.61;80.48;102240.13;5059499;28;22008;-72
2022/03/16 02:57:21;;;;;;;33.55;27.73;;;;;;;5.57;80.76;102235.81;5085912;28;20024;-72
2022/03/16 02:59:47;;;;;;;35.88;29.00;;;;;;;5.52;80.34;102238.53;5093064;28;20439;-71
2022/03/16 03:02:13;;;;;;;34.20;28.20;;;;;;;5.47;80.67;102221.91;5103749;28;20150;-72
2022/03/16 03:04:39;;;;;;;36.47;28.83;;;;;;;5.45;80.40;102237.78;5075418;28;20509;-71
2022/03/16 03:07:09;;;;;;;33.75;27.60;;;;;;;5.42;80.63;102237.00;5084713;28;20502;-71
2022/03/16 03:09:35;;;;;;;;;;;;;;;5.50;79.60;102237.72;5066452;28;20517;-71
2022/03/16 03:12:01;;;;;;;32.80;27.00;;;;;;;5.45;81.00;102234.28;5092561;28;19922;-71
2022/03/16 03:14:27;;;;;;;32.47;27.25;;;;;;;5.34;81.63;102236.25;5100283;28;20034;-71
2022/03/16 03:16:52;;;;;;;31.95;27.90;;;;;;;5.33;81.53;102235.41;5103912;28;20020;-71
2022/03/16 03:19:23;;;;;;;36.03;27.50;;;;;;;5.28;81.96;102236.38;5100130;28;20026;-72
2022/03/16 03:21:49;;;;;;;32.47;26.35;;;;;;;5.40;81.00;102239.63;5083048;28;20032;-72
2022/03/16 03:24:14;;;;;;;34.38;27.75;;;;;;;5.32;81.93;102248.59;5089273;28;20027;-71
2022/03/16 03:26:40;;;;;;;34.47;27.98;;;;;;;5.32;81.44;102243.31;5092136;28;20032;-71
2022/03/16 03:29:06;;;;;;;34.90;26.73;;;;;;;5.24;82.21;102243.47;5088815;28;20487;-71
2022/03/16 03:31:31;;;;;;;30.55;26.80;;;;;;;5.22;81.84;102251.41;5072384;28;20119;-71
2022/03/16 03:33:57;;;;;;;34.00;28.38;;;;;;;5.22;82.19;102243.50;5096712;28;20093;-71
2022/03/16 03:36:22;;;;;;;30.55;27.23;;;;;;;5.20;81.90;102242.66;5091846;28;20059;-71
2022/03/16 03:38:48;;;;;;;33.42;28.27;;;;;;;5.20;82.00;102242.66;5068003;28;20047;-71
2022/03/16 03:41:14;;;;;;;32.92;26.55;;;;;;;5.24;81.72;102240.84;5100165;28;20020;-71
2022/03/16 03:43:43;;;;;;;31.13;26.70;;;;;;;5.28;81.65;102239.00;5092492;28;20032;-71
2022/03/16 03:46:13;;;;;;;33.78;27.10;;;;;;;5.16;82.58;102237.47;5096367;28;20096;-72
2022/03/16 03:48:41;;;;;;;28.75;25.65;;;;;;;5.18;82.33;102239.19;5099743;28;20036;-71
2022/03/16 03:51:06;;;;;;;32.30;26.48;;;;;;;5.17;81.97;102232.16;5084526;28;20024;-72
2022/03/16 03:53:33;;;;;;;29.45;25.88;;;;;;;5.22;81.86;102243.50;5105581;28;20039;-72
2022/03/16 03:55:59;;;;;;;30.60;26.55;;;;;;;5.10;82.32;102234.94;5083282;28;20031;-71
2022/03/16 03:58:25;;;;;;;33.08;27.13;;;;;;;5.12;82.03;102241.06;5098485;28;20036;-71
2022/03/16 04:00:53;;;;;;;28.85;25.60;;;;;;;5.08;82.88;102242.88;5076734;28;20035;-71
2022/03/16 04:03:18;;;;;;;31.65;26.92;;;;;;;4.99;82.03;102224.56;5079091;28;20024;-71
2022/03/16 04:05:44;;;;;;;33.28;27.85;;;;;;;5.04;82.68;102242.97;5084547;28;20035;-71
2022/03/16 04:08:10;;;;;;;30.73;27.20;;;;;;;5.01;82.57;102228.06;5097660;28;20024;-71
2022/03/16 04:10:39;;;;;;;32.22;28.08;;;;;;;5.00;83.16;102236.88;5073077;28;20201;-71
2022/03/16 04:13:04;;;;;;;33.85;28.75;;;;;;;4.98;83.07;102226.34;5109462;28;20043;-72
2022/03/16 04:15:33;;;;;;;33.53;29.30;;;;;;;4.94;82.50;102213.22;5084398;28;20405;-71
2022/03/16 04:17:59;;;;;;;35.72;29.25;;;;;;;5.05;82.62;102228.88;5097018;28;20031;-71
2022/03/16 04:20:25;;;;;;;31.60;27.48;;;;;;;5.02;82.80;102229.78;5098229;28;20090;-71
2022/03/16 04:22:50;;;;;;;36.80;29.08;;;;;;;5.03;82.76;102228.03;5077219;28;20040;-71
2022/03/16 04:25:16;;;;;;;34.85;29.50;;;;;;;5.10;82.21;102234.94;5079388;28;20043;-71
2022/03/16 04:27:42;;;;;;;37.35;29.70;;;;;;;5.03;82.89;102234.19;5087533;28;20072;-71
2022/03/16 04:30:09;;;;;;;34.42;28.75;;;;;;;5.03;82.97;102233.28;5059989;28;20494;-71
2022/03/16 04:32:34;;;;;;;34.60;30.63;;;;;;;5.06;83.11;102230.59;5084065;28;20517;-71
2022/03/16 04:35:00;;;;;;;33.58;29.73;;;;;;;5.03;82.65;102233.28;5085590;28;20035;-71
2022/03/16 04:37:26;;;;;;;37.28;29.50;;;;;;;4.97;83.34;102224.63;5085005;28;20039;-71
2022/03/16 04:39:51;;;;;;;35.05;30.23;;;;;;;5.00;82.88;102224.56;5096400;28;20118;-71
2022/03/16 04:42:17;;;;;;;37.30;32.10;;;;;;;4.97;83.14;102224.63;5095191;28;20016;-71
2022/03/16 04:44:43;;;;;;;34.17;30.48;;;;;;;4.95;82.89;102236.09;5109397;28;20489;-71
2022/03/16 04:47:08;;;;;;;38.17;31.02;;;;;;;4.94;82.79;102237.84;5080642;28;20044;-71
2022/03/16 04:49:36;;;;;;;35.97;31.90;;;;;;;4.96;83.25;102230.78;5102023;28;20186;-71
2022/03/16 04:52:02;;;;;;;39.05;32.38;;;;;;;4.94;83.47;102234.31;5113056;28;20110;-71
2022/03/16 04:54:28;;;;;;;40.38;33.28;;;;;;;4.97;83.44;102231.63;5107080;28;20146;-71
2022/03/16 04:56:57;;;;;;;40.00;31.60;;;;;;;4.93;82.71;102236.09;5093068;28;20028;-71
2022/03/16 04:59:23;;;;;;;38.40;33.55;;;;;;;4.86;83.32;102225.69;5077915;28;20028;-71
2022/03/16 05:01:52;;;;;;;38.03;33.67;;;;;;;4.86;84.03;102231.84;5094824;28;20024;-71
2022/03/16 05:04:17;;;;;;;39.08;31.83;;;;;;;4.82;83.78;102234.53;5103699;28;20039;-71
2022/03/16 05:06:43;;;;;;;40.58;34.03;;;;;;;4.84;84.86;102245.94;5106501;28;20032;-71
2022/03/16 05:09:10;;;;;;;40.13;33.88;;;;;;;4.89;83.49;102239.69;5087962;28;20055;-71
2022/03/16 05:11:40;;;;;;;40.95;32.83;;;;;;;4.80;84.50;102237.22;5062106;28;20051;-71
2022/03/16 05:14:06;;;;;;;42.28;34.53;;;;;;;4.80;84.94;102224.03;5070310;28;20411;-71
2022/03/16 05:16:34;;;;;;;38.47;31.95;;;;;;;4.77;83.98;102227.59;5090644;28;20486;-71
2022/03/16 05:19:02;;;;;;;39.60;33.15;;;;;;;4.80;84.22;102225.81;5088731;28;20032;-71
2022/03/16 05:21:30;;;;;;;38.40;33.15;;;;;;;4.77;83.92;102219.69;5095004;28;20023;-71
2022/03/16 05:23:56;;;;;;;35.45;31.15;;;;;;;4.79;84.04;102222.28;5079691;28;20036;-71
2022/03/16 05:26:22;;;;;;;38.38;32.08;;;;;;;4.77;84.07;102217.06;5080985;28;20032;-71
2022/03/16 05:28:48;;;;;;;37.88;31.92;;;;;;;4.77;84.75;102219.69;5058085;28;20039;-71
2022/03/16 05:31:14;;;;;;;39.65;31.98;;;;;;;4.81;84.30;102212.59;5091965;28;20398;-71
2022/03/16 05:33:40;;;;;;;39.17;30.02;;;;;;;4.77;84.35;102216.19;5078401;28;20031;-71
2022/03/16 05:36:08;;;;;;;36.22;30.80;;;;;;;4.70;84.52;102218.03;5091676;28;20120;-70
2022/03/16 05:38:33;;;;;;;39.22;31.00;;;;;;;4.69;85.00;102213.66;5068045;28;20031;-71
2022/03/16 05:40:59;;;;;;;39.22;31.33;;;;;;;4.66;84.62;102210.22;5074801;28;20088;-71
2022/03/16 05:43:27;;;;;;;35.88;30.27;;;;;;;4.68;84.88;102209.31;5093945;28;20034;-71
2022/03/16 05:45:54;;;;;;;37.60;31.42;;;;;;;4.67;84.49;102212.81;5106411;28;20043;-72
2022/03/16 05:48:20;;;;;;;35.08;29.15;;;;;;;4.68;84.84;102222.47;5103383;28;20031;-71
2022/03/16 05:50:46;;;;;;;37.38;30.15;;;;;;;4.73;85.11;102228.50;5110237;28;20084;-71
2022/03/16 05:53:12;;;;;;;36.75;30.80;;;;;;;4.66;84.95;102232.16;5099514;28;20764;-71
2022/03/16 05:55:40;;;;;;;34.33;29.67;;;;;;;4.65;85.07;102233.06;5098166;28;20536;-71
2022/03/16 05:58:05;;;;;;;34.85;29.73;;;;;;;4.70;84.93;102233.84;5094335;28;20088;-71
2022/03/16 06:00:32;;;;;;;38.05;31.10;;;;;;;4.70;84.80;102232.97;5074951;28;20023;-71
2022/03/16 06:02:57;;;;;;;36.50;28.95;;;;;;;4.69;85.41;102234.75;5098390;28;20024;-71
2022/03/16 06:05:23;;;;;;;36.83;28.42;;;;;;;4.74;83.88;102232.06;5089060;28;20032;-71
2022/03/16 06:07:48;;;;;;;36.85;28.67;;;;;;;4.73;84.00;102239.06;5103677;28;20561;-71
2022/03/16 06:10:17;;;;;;;37.58;28.73;;;;;;;4.80;84.06;102245.13;5106593;28;20826;-71
2022/03/16 06:13:00;;;;;;;38.10;29.65;;;;;;;4.84;84.34;102251.22;5103526;28;20051;-71
2022/03/16 06:15:28;;;;;;;36.13;30.15;;;;;;;4.76;83.92;102249.59;5087627;28;20121;-71
2022/03/16 06:18:00;;;;;;;34.00;27.60;;;;;;;4.78;84.33;102245.13;5094354;28;20428;-71
2022/03/16 06:20:29;;;;;;;31.70;26.98;;;;;;;4.78;84.03;102257.44;5094856;28;20063;-71
2022/03/16 06:22:55;;;;;;;36.15;27.55;;;;;;;4.79;84.04;102246.00;5111725;28;20042;-71
2022/03/16 06:25:24;;;;;;;34.63;28.35;;;;;;;4.82;84.04;102245.09;5086961;28;20020;-71
2022/03/16 06:27:50;;;;;;;32.35;27.42;;;;;;;4.78;84.30;102246.91;5092602;28;20102;-71
2022/03/16 06:30:15;;;;;;;31.70;27.17;;;;;;;4.85;83.84;102245.91;5085061;28;20035;-71
2022/03/16 06:32:45;;;;;;;33.05;28.23;;;;;;;4.86;83.91;102245.03;5079745;28;20088;-71
2022/03/16 06:35:11;;;;;;;36.73;29.07;;;;;;;4.86;83.92;102234.47;5100607;28;20936;-71
2022/03/16 06:37:37;;;;;;;34.42;27.98;;;;;;;4.95;83.69;102249.28;5103471;28;20517;-71
2022/03/16 06:40:03;;;;;;;34.75;27.42;;;;;;;4.96;83.11;102253.63;5078038;28;20024;-70
2022/03/16 06:42:29;;;;;;;36.97;27.52;;;;;;;4.91;83.71;102245.81;5106515;28;20031;-71
2022/03/16 06:44:55;;;;;;;32.33;26.60;;;;;;;4.95;83.74;102246.63;5104810;28;20495;-71
2022/03/16 06:47:21;;;;;;;30.45;26.67;;;;;;;4.97;83.43;102239.53;5077856;28;20022;-71
2022/03/16 06:49:46;;;;;;;31.42;25.98;;;;;;;5.01;83.44;102225.44;5076353;28;20028;-71
2022/03/16 06:52:12;;;;;;;31.85;25.95;;;;;;;4.99;82.94;102230.72;5076486;28;20028;-70
2022/03/16 06:54:38;;;;;;;32.72;26.63;;;;;;;5.13;82.44;102234.88;5074328;28;20429;-71
2022/03/16 06:57:07;;;;;;;29.85;25.52;;;;;;;5.15;82.73;102231.34;5079132;28;20031;-71
2022/03/16 06:59:32;;;;;;;31.05;25.50;;;;;;;5.20;82.39;102221.53;5103479;28;20028;-70
2022/03/16 07:01:59;;;;;;;34.65;26.42;;;;;;;5.21;82.18;102220.66;5096006;28;20103;-71
2022/03/16 07:04:25;;;;;;;28.95;23.08;;;;;;;5.24;82.61;102215.34;5068823;28;20439;-70
2022/03/16 07:06:50;;;;;;;29.25;23.75;;;;;;;5.23;82.66;102213.59;5060484;28;20032;-71
2022/03/16 07:09:16;;;;;;;28.52;24.10;;;;;;;5.26;81.54;102203.88;5103102;28;20039;-71
2022/03/16 07:11:42;;;;;;;29.42;23.88;;;;;;;5.36;82.13;102218.66;5099787;28;20530;-71
2022/03/16 07:16:51;;;;;;;26.77;22.65;;;;;;;5.60;81.13;102215.50;5107920;28;20092;-71
2022/03/16 07:19:19;;;;;;;28.70;24.20;;;;;;;5.74;80.92;102224.94;5100543;28;20418;-71
2022/03/16 07:21:47;;;;;;;28.10;23.02;;;;;;;5.78;80.25;102218.66;5080645;28;20453;-71
2022/03/16 07:24:13;;;;;;;27.42;23.67;;;;;;;5.90;79.98;102221.91;5110314;28;20431;-71
2022/03/16 07:26:39;;;;;;;26.80;22.63;;;;;;;5.97;80.24;102213.88;5076968;28;20082;-71
2022/03/16 07:29:05;;;;;;;26.83;23.75;;;;;;;6.01;79.66;102207.66;5079065;28;20051;-71
2022/03/16 07:31:31;;;;;;;26.27;23.42;;;;;;;6.11;79.32;102194.19;5101154;28;20528;-71
2022/03/16 07:33:57;;;;;;;27.77;23.23;;;;;;;6.19;78.79;102201.09;5094561;28;20024;-71
2022/03/16 07:36:23;;;;;;;30.05;22.52;;;;;;;6.26;78.30;102198.25;5083617;28;20386;-71
2022/03/16 07:38:48;;;;;;;25.55;22.48;;;;;;;6.36;78.95;102185.72;5085410;28;20034;-71
2022/03/16 07:41:15;;;;;;;26.33;21.25;;;;;;;6.44;77.97;102189.03;5065386;28;20035;-71
2022/03/16 07:43:41;;;;;;;23.23;20.73;;;;;;;6.53;77.55;102185.28;5094267;28;20051;-71
2022/03/16 07:46:06;;;;;;;25.33;21.67;;;;;;;6.55;76.36;102184.34;5098734;28;20023;-72
2022/03/16 07:48:34;;;;;;;24.77;21.10;;;;;;;6.67;77.19;102195.53;5097854;28;20039;-72
2022/03/16 07:51:00;;;;;;;26.25;22.00;;;;;;;6.72;76.68;102191.84;5106250;28;20034;-71
2022/03/16 07:53:26;;;;;;;23.17;20.58;;;;;;;6.82;76.80;102193.38;5078127;28;20114;-72
2022/03/16 07:55:55;;;;;;;25.42;19.83;;;;;;;6.94;76.51;102191.28;5097710;28;20038;-71
2022/03/16 07:58:21;;;;;;;24.13;21.17;;;;;;;6.98;75.46;102192.97;5091458;28;20035;-71
2022/03/16 08:00:46;;;;;;;23.30;20.83;;;;;;;7.02;75.64;102194.59;5105654;28;20051;-71
2022/03/16 08:03:13;;;;;;;24.33;21.00;;;;;;;7.07;75.25;102213.03;5075847;28;20055;-71
2022/03/16 08:05:39;;;;;;;25.55;21.58;;;;;;;7.12;75.30;102196.13;5101965;28;20547;-72
2022/03/16 08:08:05;;;;;;;24.63;21.25;;;;;;;7.27;74.60;102202.78;5103091;28;20027;-72
2022/03/16 08:10:30;;;;;;;23.30;20.73;;;;;;;7.27;73.68;102189.53;5085319;28;20036;-72
2022/03/16 08:12:56;;;;;;;24.23;21.20;;;;;;;7.31;73.71;102203.53;5094856;28;20398;-72
2022/03/16 08:15:21;;;;;;;25.08;20.77;;;;;;;7.18;73.82;102182.72;5077606;28;20056;-72
2022/03/16 08:17:47;;;;;;;23.10;20.33;;;;;;;7.29;73.79;102198.28;5075724;28;20031;-71
2022/03/16 08:20:12;;;;;;;25.75;20.77;;;;;;;7.31;73.55;102193.81;5078158;28;20534;-72
2022/03/16 08:22:38;;;;;;;22.50;19.73;;;;;;;7.38;73.35;102194.50;5075078;28;20059;-71
2022/03/16 08:25:06;;;;;;;25.67;21.55;;;;;;;7.45;73.25;102201.38;5060883;28;20024;-72
2022/03/16 08:27:32;;;;;;;25.33;21.35;;;;;;;7.61;72.82;102204.44;5077808;28;20487;-72
2022/03/16 08:29:57;;;;;;;27.25;21.23;;;;;;;7.74;72.44;102190.81;5101098;28;20115;-72
2022/03/16 08:32:23;;;;;;;25.00;20.23;;;;;;;7.92;71.71;102188.53;5074837;28;20479;-71
2022/03/16 08:34:50;;;;;;;23.55;20.05;;;;;;;8.18;71.61;102188.59;5099710;28;20107;-72
2022/03/16 08:37:19;;;;;;;26.63;20.98;;;;;;;8.30;70.38;102183.81;5101734;28;20103;-72
2022/03/16 08:39:46;;;;;;;28.40;21.60;;;;;;;8.41;70.45;102190.56;5103356;28;20104;-72
2022/03/16 08:42:12;;;;;;;25.90;21.23;;;;;;;8.53;69.49;102191.94;5103372;28;20552;-72
2022/03/16 08:44:39;;;;;;;25.75;20.45;;;;;;;8.60;69.08;102190.81;5069859;28;20058;-71
2022/03/16 08:47:06;;;;;;;25.70;20.10;;;;;;;8.75;68.99;102201.81;5101369;28;20504;-71
2022/03/16 08:49:31;;;;;;;25.73;20.42;;;;;;;8.95;68.53;102209.97;5104150;28;20032;-72
2022/03/16 08:51:58;;;;;;;22.73;20.25;;;;;;;9.18;68.21;102210.97;5083924;28;20416;-72
2022/03/16 08:54:24;;;;;;;23.85;19.55;;;;;;;9.15;66.96;102213.69;5109094;28;20404;-72
2022/03/16 08:56:51;;;;;;;30.73;20.50;;;;;;;9.26;66.54;102216.84;5108740;28;20128;-72
2022/03/16 08:59:19;;;;;;;23.67;20.85;;;;;;;9.38;66.45;102221.72;5110450;28;20465;-72
2022/03/16 09:01:44;;;;;;;25.27;20.88;;;;;;;9.49;65.85;102229.31;5095483;28;20031;-73
2022/03/16 09:04:10;;;;;;;25.50;21.73;;;;;;;9.56;65.78;102236.16;5113441;28;20443;-72
2022/03/16 09:06:35;;;;;;;25.58;21.23;;;;;;;9.57;65.20;102227.25;5094909;28;20036;-73
2022/03/16 09:09:01;;;;;;;26.92;21.02;;;;;;;9.67;64.91;102223.31;5113222;28;20441;-72
2022/03/16 09:11:27;;;;;;;25.17;20.70;;;;;;;9.83;64.32;102225.41;5077888;28;20042;-73
2022/03/16 09:13:53;;;;;;;26.42;19.55;;;;;;;9.80;64.75;102222.88;5103235;28;20024;-73
2022/03/16 09:16:19;;;;;;;26.67;20.20;;;;;;;9.94;64.64;102220.53;5074145;28;20445;-73
2022/03/16 09:18:47;;;;;;;26.35;21.25;;;;;;;10.11;64.21;102212.78;5094812;28;20501;-73
2022/03/16 09:21:12;;;;;;;23.95;20.25;;;;;;;10.28;64.09;102213.94;5095190;28;20410;-73
2022/03/16 09:23:38;;;;;;;23.42;19.48;;;;;;;10.42;62.91;102200.97;5092619;28;20031;-74
2022/03/16 09:26:06;;;;;;;26.80;20.17;;;;;;;10.50;62.36;102211.28;5092402;28;20047;-74
2022/03/16 09:28:32;;;;;;;28.50;20.60;;;;;;;10.40;62.60;102190.38;5111197;28;20027;-72
2022/03/16 09:30:58;;;;;;;26.38;21.00;;;;;;;10.54;62.55;102202.25;5106195;28;20531;-74
2022/03/16 09:33:24;;;;;;;27.27;20.67;;;;;;;10.63;62.28;102202.72;5076643;28;20428;-72
2022/03/16 09:35:51;;;;;;;27.02;20.73;;;;;;;10.76;61.73;102208.41;5074377;28;20032;-72
2022/03/16 09:38:18;;;;;;;27.55;21.05;;;;;;;10.93;61.33;102201.50;5094012;28;20027;-72
2022/03/16 09:40:50;;;;;;;27.95;20.55;;;;;;;10.91;60.92;102205.13;5102749;28;20023;-72
2022/03/16 09:43:19;;;;;;;24.73;21.02;;;;;;;10.97;61.18;102197.78;5109016;28;20054;-72
2022/03/16 09:45:51;;;;;;;24.23;20.70;;;;;;;11.32;61.04;102190.91;5096232;28;20043;-72
2022/03/16 09:48:16;;;;;;;23.65;19.67;;;;;;;11.47;59.66;102189.34;5086888;28;20060;-72
2022/03/16 09:50:42;;;;;;;24.77;19.73;;;;;;;11.61;59.45;102186.94;5073969;28;20066;-72
2022/03/16 09:53:13;;;;;;;23.08;18.95;;;;;;;11.76;58.98;102188.00;5093158;28;20024;-73
2022/03/16 09:55:56;;;;;;;23.75;19.95;;;;;;;11.96;58.92;102177.31;5069745;28;20110;-73
2022/03/16 09:58:22;;;;;;;22.20;18.58;;;;;;;12.24;58.54;102179.53;5035413;28;20033;-73
2022/03/16 10:00:48;;;;;;;24.02;19.27;;;;;;;12.38;57.18;102180.66;5069092;28;20065;-73
2022/03/16 10:03:15;;;;;;;22.73;19.38;;;;;;;12.44;57.13;102185.69;5052625;28;20756;-73
2022/03/16 10:05:44;;;;;;;28.23;18.60;;;;;;;12.50;56.99;102172.06;5069036;28;20032;-73
2022/03/16 10:08:10;;;;;;;24.20;19.08;;;;;;;12.70;56.20;102177.22;5069480;28;20021;-72
2022/03/16 10:13:24;;;;;;;21.83;17.90;;;;;;;13.00;54.87;102178.41;5069595;28;20115;-73
2022/03/16 10:15:52;;;;;;;20.27;17.33;;;;;;;13.00;55.44;102178.41;5068436;28;20036;-73
2022/03/16 10:18:22;;;;;;;19.60;17.52;;;;;;;12.95;55.08;102182.19;5069223;28;20024;-73
2022/03/16 10:20:48;;;;;;;21.15;17.70;;;;;;;13.05;55.53;102177.22;5052376;28;20082;-73
2022/03/16 10:23:20;;;;;;;23.33;18.42;;;;;;;13.28;54.40;102173.38;5052544;28;20487;-73
2022/03/16 10:25:51;;;;;;;22.00;16.60;;;;;;;13.23;54.09;102167.38;5068845;28;20431;-73
2022/03/16 10:28:21;;;;;;;18.88;15.70;;;;;;;13.73;53.55;102170.97;5094208;28;20015;-73
2022/03/16 10:31:00;;;;;;;21.38;16.42;;;;;;;13.75;53.05;102171.75;5111679;28;20023;-73
2022/03/16 10:33:48;;;;;;;19.27;16.17;;;;;;;14.11;53.33;102157.28;5111764;28;20023;-73
2022/03/16 10:36:14;;;;;;;19.38;16.02;;;;;;;14.28;51.61;102171.41;5076579;28;20563;-72
2022/03/16 10:38:45;;;;;;;18.25;15.38;;;;;;;14.46;51.35;102160.59;5091548;28;20066;-73
2022/03/16 10:46:52;;;;;;;15.98;13.68;;;;;;;14.68;50.73;102162.91;5091541;28;20303;-73
2022/03/16 10:49:20;;;;;;;15.32;13.50;;;;;;;14.64;50.73;102148.81;5056668;28;20028;-72
2022/03/16 10:51:59;;;;;;;16.40;13.95;;;;;;;14.52;50.88;102146.88;5073123;28;20028;-73
2022/03/16 10:54:28;;;;;;;16.75;13.43;;;;;;;14.70;50.78;102152.97;5077317;28;20021;-73
2022/03/16 10:56:57;;;;;;;18.77;13.48;;;;;;;14.67;50.57;102154.00;5091350;28;20055;-73
2022/03/16 10:59:29;;;;;;;16.92;14.55;;;;;;;14.82;50.56;102160.25;5089026;28;20019;-73
2022/03/16 11:02:05;;;;;;;16.58;14.55;;;;;;;14.98;49.81;102158.38;5110323;28;20023;-73
2022/03/16 11:04:33;;;;;;;17.73;14.18;;;;;;;15.29;49.57;102151.13;5100433;28;20038;-73
2022/03/16 11:07:00;;;;;;;16.23;13.70;;;;;;;15.54;48.58;102145.09;5090974;28;20027;-73
2022/03/16 11:09:26;;;;;;;16.33;13.77;;;;;;;15.46;48.94;102150.09;5092237;28;20044;-73
2022/03/16 11:14:43;;;;;;;16.65;13.80;;;;;;;15.05;49.68;102150.81;5103510;28;20101;-73
2022/03/16 11:17:10;;;;;;;18.17;13.98;;;;;;;14.73;50.41;102158.97;5106362;28;20023;-73
2022/03/16 11:19:36;;;;;;;17.30;15.40;;;;;;;14.49;51.71;102157.72;5098918;28;20024;-73
2022/03/16 11:22:11;;;;;;;17.48;15.57;;;;;;;14.34;52.20;102161.31;5111197;28;20035;-73
2022/03/16 11:24:42;;;;;;;17.02;15.00;;;;;;;14.64;51.23;102167.56;5110847;28;20041;-74
2022/03/16 11:27:26;;;;;;;23.88;13.93;;;;;;;15.03;51.55;102158.13;5110961;28;20024;-73
2022/03/16 11:30:06;;;;;;;16.27;13.35;;;;;;;15.27;50.24;102162.94;5093143;28;20042;-74